Terminal Aerodrome Forecast
Issued by NWS Binghamton, NY

Current Version | Previous Version | Text Only | Print | Product List | Glossary On
Versions: 1 2 3 4 5 6 7 8 9 10 11 12 13 14 15 16 17 18 19 20 21 22 23 24 25 26 27 28 29 30 31 32 33 34 35 36 37 38 39 40
487
FTUS41 KBGM 131740
TAFAVP
TAF
KAVP 131740Z 1318/1418 24006KT P6SM SCT018 BKN035
      TEMPO 1318/1319 BKN018 BKN035
     FM131900 23006KT P6SM SCT035
     FM132200 19005KT P6SM VCTS SCT035CB
      TEMPO 1322/1402 3SM TSRA BR OVC030CB
     FM140200 17008KT 6SM -SHRA BR BKN016 OVC025
     FM140800 20004KT 5SM BR VCSH BKN007
     FM141500 23005KT P6SM VCSH BKN010=

USA.gov is the U.S. government's official web portal to all federal, state and local government web resources and services.